Time;durP1;ratioP1;P1;durP2;ratioP2;P2;SDS_P1;SDS_P2;PMS_P1;PMS_P2;Temp;Humidity;BMP_temperature;BMP_pressure;BME280_temperature;BME280_humidity;BME280_pressure;Samples;Min_cycle;Max_cycle;Signal;HPM_P1;HPM_P2
2023/03/31 00:00:46;;;;;;;17.43;15.40;;;;;;;;;;5093476;28;20228;-83
2023/03/31 00:03:20;;;;;;;16.10;14.43;;;;;;;;;;5094478;28;20575;-83
2023/03/31 00:05:46;;;;;;;18.77;15.10;;;;;;;;;;5093648;28;20209;-84
2023/03/31 00:08:12;;;;;;;18.50;14.97;;;;;;;;;;5088945;28;20729;-83
2023/03/31 00:10:44;;;;;;;17.27;14.63;;;;;;;;;;5095689;28;20208;-82
2023/03/31 00:13:10;;;;;;;16.40;14.17;;;;;;;;;;5099266;28;20207;-83
2023/03/31 00:15:36;;;;;;;18.87;15.03;;;;;;;;;;5096334;28;20207;-83
2023/03/31 00:18:03;;;;;;;17.23;14.33;;;;;;;;;;5115941;28;20183;-82
2023/03/31 00:20:32;;;;;;;22.73;15.93;;;;;;;;;;5091924;28;20190;-83
2023/03/31 00:22:58;;;;;;;17.03;14.87;;;;;;;;;;5093314;28;20223;-83
2023/03/31 00:25:24;;;;;;;16.20;14.50;;;;;;;;;;5092460;28;20211;-84
2023/03/31 00:27:51;;;;;;;18.83;14.60;;;;;;;;;;5092297;28;20211;-83
2023/03/31 00:30:17;;;;;;;20.13;15.77;;;;;;;;;;5112490;28;20171;-84
2023/03/31 00:32:44;;;;;;;17.63;13.97;;;;;;;;;;5092633;28;20664;-83
2023/03/31 00:35:10;;;;;;;16.87;14.23;;;;;;;;;;5110474;28;20175;-83
2023/03/31 00:37:36;;;;;;;17.43;14.27;;;;;;;;;;5092773;28;20194;-84
2023/03/31 00:40:09;;;;;;;15.87;13.67;;;;;;;;;;5091198;28;20180;-83
2023/03/31 00:42:41;;;;;;;19.57;14.63;;;;;;;;;;5090161;28;20176;-84
2023/03/31 00:45:14;;;;;;;16.70;14.73;;;;;;;;;;5090089;28;20299;-84
2023/03/31 00:47:41;;;;;;;19.80;14.03;;;;;;;;;;5087205;28;20231;-83
2023/03/31 00:50:37;;;;;;;14.87;12.90;;;;;;;;;;5108180;28;20184;-83
2023/03/31 00:53:08;;;;;;;17.73;12.67;;;;;;;;;;5067754;28;20237;-83
2023/03/31 00:55:37;;;;;;;12.80;11.50;;;;;;;;;;5091487;28;20231;-83
2023/03/31 00:58:05;;;;;;;13.13;11.03;;;;;;;;;;5111518;28;20316;-84
2023/03/31 01:00:31;;;;;;;15.97;12.37;;;;;;;;;;5092911;28;20220;-83
2023/03/31 01:02:59;;;;;;;12.67;10.50;;;;;;;;;;5097005;28;20540;-84
2023/03/31 01:05:26;;;;;;;14.50;11.53;;;;;;;;;;5111898;28;20299;-83
2023/03/31 01:07:54;;;;;;;14.17;12.20;;;;;;;;;;5095764;28;20264;-83
2023/03/31 01:10:20;;;;;;;15.90;12.63;;;;;;;;;;5112072;28;20188;-83
2023/03/31 01:12:48;;;;;;;15.70;11.73;;;;;;;;;;5097416;28;20191;-84
2023/03/31 01:15:14;;;;;;;13.03;11.10;;;;;;;;;;5087875;28;20611;-84
2023/03/31 01:17:43;;;;;;;16.90;11.40;;;;;;;;;;5091040;28;20237;-84
2023/03/31 01:20:18;;;;;;;13.00;10.73;;;;;;;;;;5096041;28;20637;-83
2023/03/31 01:22:58;;;;;;;12.63;10.90;;;;;;;;;;5096165;28;20607;-84
2023/03/31 01:25:49;;;;;;;14.07;11.27;;;;;;;;;;5098625;28;20274;-83
2023/03/31 01:28:15;;;;;;;16.17;11.40;;;;;;;;;;5086807;28;20245;-83
2023/03/31 01:30:51;;;;;;;11.90;10.70;;;;;;;;;;5098267;28;20207;-84
2023/03/31 01:33:29;;;;;;;15.17;11.43;;;;;;;;;;5096534;28;20694;-84
2023/03/31 01:36:07;;;;;;;12.40;10.47;;;;;;;;;;5095060;28;20187;-85
2023/03/31 01:38:33;;;;;;;12.47;10.13;;;;;;;;;;5110488;28;20191;-83
2023/03/31 01:41:22;;;;;;;12.40;11.07;;;;;;;;;;5096108;28;20184;-84
2023/03/31 01:43:51;;;;;;;15.43;11.10;;;;;;;;;;5096025;28;20184;-83
2023/03/31 01:46:20;;;;;;;14.67;11.10;;;;;;;;;;5111593;28;20638;-84
2023/03/31 01:48:52;;;;;;;12.40;10.80;;;;;;;;;;5115047;28;20192;-83
2023/03/31 01:51:21;;;;;;;12.20;10.90;;;;;;;;;;5108273;28;20182;-84
2023/03/31 01:53:47;;;;;;;14.73;11.47;;;;;;;;;;5087564;28;20183;-83
2023/03/31 01:56:17;;;;;;;15.37;11.13;;;;;;;;;;5094315;28;20179;-84
2023/03/31 01:59:05;;;;;;;15.40;11.70;;;;;;;;;;5108239;27;20213;-83
2023/03/31 02:01:36;;;;;;;12.33;10.87;;;;;;;;;;5107818;28;20196;-83
2023/03/31 02:04:22;;;;;;;13.93;11.83;;;;;;;;;;5096217;28;20188;-84
2023/03/31 02:06:55;;;;;;;13.00;10.60;;;;;;;;;;5094342;28;20176;-83
2023/03/31 02:09:23;;;;;;;13.40;11.00;;;;;;;;;;5094015;28;20295;-83
2023/03/31 02:11:50;;;;;;;17.87;11.37;;;;;;;;;;5095388;28;20198;-83
2023/03/31 02:14:20;;;;;;;12.10;10.80;;;;;;;;;;5095449;28;20186;-83
2023/03/31 02:16:49;;;;;;;12.17;10.97;;;;;;;;;;5090088;28;20194;-83
2023/03/31 02:19:17;;;;;;;13.60;9.90;;;;;;;;;;5095352;28;20195;-83
2023/03/31 02:21:45;;;;;;;12.23;9.80;;;;;;;;;;5095064;28;20184;-84
2023/03/31 02:24:13;;;;;;;10.50;9.50;;;;;;;;;;5094504;28;20298;-84
2023/03/31 02:26:46;;;;;;;14.47;10.87;;;;;;;;;;5092477;28;20175;-83
2023/03/31 02:29:12;;;;;;;11.03;9.93;;;;;;;;;;5113129;28;20732;-84
2023/03/31 02:31:43;;;;;;;10.77;9.67;;;;;;;;;;5109760;28;20188;-83
2023/03/31 02:34:10;;;;;;;12.17;10.50;;;;;;;;;;5112454;28;20180;-83
2023/03/31 02:36:36;;;;;;;10.90;9.43;;;;;;;;;;5110432;28;20220;-83
2023/03/31 02:39:05;;;;;;;10.70;9.70;;;;;;;;;;5112323;28;20304;-83
2023/03/31 02:41:31;;;;;;;11.17;9.97;;;;;;;;;;5090619;28;20630;-83
2023/03/31 02:43:58;;;;;;;10.83;9.83;;;;;;;;;;5094635;28;20180;-84
2023/03/31 02:46:24;;;;;;;12.23;10.00;;;;;;;;;;5094654;28;20214;-83
2023/03/31 02:48:52;;;;;;;11.27;10.17;;;;;;;;;;5094610;28;20207;-84
2023/03/31 02:51:34;;;;;;;11.97;10.67;;;;;;;;;;5092266;28;20193;-84
2023/03/31 02:54:06;;;;;;;14.07;10.30;;;;;;;;;;5109158;28;20657;-83
2023/03/31 02:56:51;;;;;;;15.07;10.77;;;;;;;;;;5094658;28;20172;-84
2023/03/31 02:59:26;;;;;;;12.80;10.30;;;;;;;;;;5105608;28;20184;-83
2023/03/31 03:02:11;;;;;;;12.70;11.40;;;;;;;;;;5084769;28;20183;-84
2023/03/31 03:05:01;;;;;;;12.80;11.50;;;;;;;;;;5091693;28;20208;-83
2023/03/31 03:07:36;;;;;;;15.60;12.43;;;;;;;;;;4988674;28;20195;-83
2023/03/31 03:10:02;;;;;;;14.00;11.90;;;;;;;;;;5014548;28;20321;-83
2023/03/31 03:12:33;;;;;;;14.57;12.30;;;;;;;;;;5011558;28;20199;-83
2023/03/31 03:14:59;;;;;;;14.57;12.57;;;;;;;;;;5007514;28;20172;-84
2023/03/31 03:17:28;;;;;;;14.07;12.03;;;;;;;;;;5015469;28;20176;-83
2023/03/31 03:19:55;;;;;;;14.67;12.20;;;;;;;;;;5014811;28;20214;-84
2023/03/31 03:22:21;;;;;;;16.27;12.97;;;;;;;;;;5014041;28;20365;-84
2023/03/31 03:24:48;;;;;;;14.37;12.63;;;;;;;;;;5013663;28;20667;-83
2023/03/31 03:27:14;;;;;;;14.33;12.90;;;;;;;;;;5025996;28;20317;-84
2023/03/31 03:29:41;;;;;;;15.73;14.07;;;;;;;;;;4998427;28;20234;-84
2023/03/31 03:32:08;;;;;;;15.67;13.97;;;;;;;;;;5013915;28;20284;-83
2023/03/31 03:34:34;;;;;;;16.37;14.37;;;;;;;;;;5014327;28;20697;-84
2023/03/31 03:37:00;;;;;;;17.70;13.37;;;;;;;;;;5014318;28;20264;-84
2023/03/31 03:39:26;;;;;;;14.07;12.60;;;;;;;;;;5010624;28;20209;-83
2023/03/31 03:41:52;;;;;;;19.53;15.07;;;;;;;;;;5013005;28;20262;-84
2023/03/31 03:44:18;;;;;;;16.80;14.57;;;;;;;;;;5046926;28;20375;-84
2023/03/31 03:46:44;;;;;;;16.97;14.13;;;;;;;;;;5092985;28;20184;-84
2023/03/31 03:49:10;;;;;;;16.10;13.80;;;;;;;;;;5118997;28;20695;-84
2023/03/31 03:51:36;;;;;;;16.13;14.40;;;;;;;;;;5103487;28;20199;-83
2023/03/31 03:54:02;;;;;;;16.17;14.57;;;;;;;;;;5104527;28;20236;-84
2023/03/31 03:56:28;;;;;;;18.70;14.83;;;;;;;;;;5103106;28;20200;-84
2023/03/31 03:58:54;;;;;;;17.97;15.60;;;;;;;;;;5088537;28;20226;-84
2023/03/31 04:01:20;;;;;;;15.93;14.33;;;;;;;;;;5090934;28;20211;-84
2023/03/31 04:03:46;;;;;;;16.37;14.00;;;;;;;;;;5110944;28;20188;-84
2023/03/31 04:06:12;;;;;;;17.37;15.07;;;;;;;;;;5076481;28;20287;-84
2023/03/31 04:08:38;;;;;;;16.53;14.80;;;;;;;;;;5089197;28;20282;-84
2023/03/31 04:11:12;;;;;;;17.87;15.03;;;;;;;;;;5091626;28;20659;-84
2023/03/31 04:13:38;;;;;;;17.00;14.50;;;;;;;;;;5109837;28;20186;-84
2023/03/31 04:19:10;;;;;;;19.07;15.77;;;;;;;;;;5100804;28;20186;-84
2023/03/31 04:21:43;;;;;;;17.93;15.00;;;;;;;;;;5091706;28;20284;-84
2023/03/31 04:24:11;;;;;;;16.90;15.03;;;;;;;;;;5109491;28;20312;-83
2023/03/31 04:29:41;;;;;;;16.10;14.40;;;;;;;;;;5104884;28;20222;-84
2023/03/31 04:32:07;;;;;;;17.13;15.27;;;;;;;;;;5106150;28;20179;-83
2023/03/31 04:34:36;;;;;;;17.43;15.60;;;;;;;;;;5110553;28;20180;-84
2023/03/31 04:37:02;;;;;;;17.97;16.03;;;;;;;;;;5107327;28;20537;-83
2023/03/31 04:39:32;;;;;;;19.27;16.27;;;;;;;;;;5083433;28;20283;-84
2023/03/31 04:41:58;;;;;;;21.00;16.47;;;;;;;;;;5092924;28;20346;-83
2023/03/31 04:44:24;;;;;;;18.70;16.73;;;;;;;;;;5108845;28;20541;-83
2023/03/31 04:46:51;;;;;;;20.03;15.63;;;;;;;;;;5088464;28;20647;-84
2023/03/31 04:49:17;;;;;;;20.17;16.87;;;;;;;;;;5107580;28;20274;-83
2023/03/31 04:51:43;;;;;;;18.37;16.13;;;;;;;;;;5107227;28;20747;-83
2023/03/31 04:54:09;;;;;;;22.67;17.50;;;;;;;;;;5091362;28;20217;-83
2023/03/31 04:56:35;;;;;;;19.63;16.70;;;;;;;;;;5093522;28;20182;-83
2023/03/31 04:59:02;;;;;;;19.03;17.13;;;;;;;;;;5079755;28;20278;-83
2023/03/31 05:01:32;;;;;;;18.90;16.13;;;;;;;;;;5099656;28;20287;-82
2023/03/31 05:03:58;;;;;;;19.53;17.53;;;;;;;;;;5092587;28;20540;-83
2023/03/31 05:06:24;;;;;;;20.63;18.23;;;;;;;;;;5091557;28;20263;-82
2023/03/31 05:08:50;;;;;;;23.80;17.43;;;;;;;;;;5077212;28;20199;-82
2023/03/31 05:11:16;;;;;;;20.00;17.23;;;;;;;;;;5106028;28;20183;-83
2023/03/31 05:13:42;;;;;;;20.17;17.93;;;;;;;;;;5104598;28;20631;-83
2023/03/31 05:16:11;;;;;;;20.40;18.20;;;;;;;;;;5105028;28;20172;-83
2023/03/31 05:18:37;;;;;;;21.83;18.87;;;;;;;;;;5081714;28;20191;-84
2023/03/31 05:21:10;;;;;;;21.23;17.97;;;;;;;;;;5082000;28;20180;-83
2023/03/31 05:23:36;;;;;;;20.17;17.43;;;;;;;;;;5092219;28;20254;-84
2023/03/31 05:26:02;;;;;;;21.97;17.67;;;;;;;;;;5088895;28;20209;-83
2023/03/31 05:28:28;;;;;;;20.50;17.50;;;;;;;;;;5092039;28;20322;-84
2023/03/31 05:30:54;;;;;;;20.40;17.90;;;;;;;;;;5091838;28;20295;-83
2023/03/31 05:33:20;;;;;;;24.87;18.23;;;;;;;;;;5091312;28;20183;-83
2023/03/31 05:35:46;;;;;;;20.00;17.83;;;;;;;;;;5091838;28;20179;-84
2023/03/31 05:38:12;;;;;;;20.27;17.10;;;;;;;;;;5107198;28;20191;-84
2023/03/31 05:40:38;;;;;;;27.23;18.03;;;;;;;;;;5092409;28;20217;-83
2023/03/31 05:43:04;;;;;;;26.03;18.23;;;;;;;;;;5093883;28;20176;-84
2023/03/31 05:45:30;;;;;;;23.13;18.17;;;;;;;;;;5094233;28;20321;-83
2023/03/31 05:47:56;;;;;;;18.67;16.67;;;;;;;;;;5114711;28;20224;-83
2023/03/31 05:50:22;;;;;;;22.07;18.63;;;;;;;;;;5095928;28;20238;-83
2023/03/31 05:52:48;;;;;;;20.80;17.50;;;;;;;;;;5093456;28;20176;-82
2023/03/31 05:55:14;;;;;;;21.27;16.63;;;;;;;;;;5096088;28;20436;-82
2023/03/31 05:57:40;;;;;;;19.17;17.10;;;;;;;;;;5113759;28;20672;-83
2023/03/31 06:00:10;;;;;;;20.20;17.67;;;;;;;;;;5096571;28;20171;-83
2023/03/31 06:02:36;;;;;;;19.30;17.17;;;;;;;;;;5113558;28;20175;-82
2023/03/31 06:05:02;;;;;;;19.97;17.70;;;;;;;;;;5114075;28;20184;-83
2023/03/31 06:07:28;;;;;;;21.07;16.80;;;;;;;;;;5095915;28;20267;-83
2023/03/31 06:09:54;;;;;;;19.40;16.57;;;;;;;;;;5093595;28;20196;-84
2023/03/31 06:12:20;;;;;;;18.77;16.77;;;;;;;;;;5113171;28;20217;-84
2023/03/31 06:14:46;;;;;;;19.17;16.50;;;;;;;;;;5089960;28;20539;-84
2023/03/31 06:17:12;;;;;;;18.87;16.87;;;;;;;;;;5109542;28;20236;-83
2023/03/31 06:19:39;;;;;;;23.17;17.03;;;;;;;;;;5110777;28;20541;-84
2023/03/31 06:22:05;;;;;;;19.83;17.13;;;;;;;;;;5094952;28;20529;-83
2023/03/31 06:24:31;;;;;;;18.67;16.67;;;;;;;;;;5093542;28;20642;-85
2023/03/31 06:26:57;;;;;;;20.43;18.23;;;;;;;;;;5095884;28;20585;-84
2023/03/31 06:29:23;;;;;;;21.63;17.90;;;;;;;;;;5109470;28;21121;-84
2023/03/31 06:31:49;;;;;;;22.53;17.83;;;;;;;;;;5092131;28;20669;-83
2023/03/31 06:34:15;;;;;;;24.70;18.57;;;;;;;;;;5095090;28;20194;-84
2023/03/31 06:36:41;;;;;;;20.17;18.07;;;;;;;;;;5110037;28;20634;-84
2023/03/31 06:39:10;;;;;;;23.67;18.83;;;;;;;;;;5096356;28;20286;-84
2023/03/31 06:41:37;;;;;;;22.63;19.63;;;;;;;;;;5111761;28;20523;-84
2023/03/31 06:44:03;;;;;;;22.27;19.80;;;;;;;;;;5110730;28;20262;-84
2023/03/31 06:46:29;;;;;;;22.23;19.90;;;;;;;;;;5109735;28;20260;-84
2023/03/31 06:48:55;;;;;;;22.70;19.90;;;;;;;;;;5095171;28;20204;-83
2023/03/31 06:51:21;;;;;;;22.30;19.77;;;;;;;;;;5092966;28;20269;-84
2023/03/31 06:53:47;;;;;;;22.53;20.23;;;;;;;;;;5094163;28;20190;-84
2023/03/31 06:56:13;;;;;;;26.60;21.40;;;;;;;;;;5110440;28;20544;-83
2023/03/31 06:58:39;;;;;;;24.30;19.30;;;;;;;;;;5109693;28;20183;-83
2023/03/31 07:01:05;;;;;;;22.70;20.27;;;;;;;;;;5094906;28;20642;-84
2023/03/31 07:03:32;;;;;;;24.13;21.57;;;;;;;;;;5092503;28;20188;-82
2023/03/31 07:05:58;;;;;;;25.67;22.90;;;;;;;;;;5091022;28;20191;-83
2023/03/31 07:08:24;;;;;;;26.93;23.03;;;;;;;;;;5091721;28;20299;-84
2023/03/31 07:10:54;;;;;;;25.67;22.93;;;;;;;;;;5094419;28;20263;-85
2023/03/31 07:13:20;;;;;;;26.10;23.40;;;;;;;;;;5095964;28;20237;-85
2023/03/31 07:15:47;;;;;;;25.13;22.57;;;;;;;;;;5084151;28;20650;-85
2023/03/31 07:18:14;;;;;;;26.53;23.60;;;;;;;;;;5095411;28;20180;-84
2023/03/31 07:20:40;;;;;;;26.43;22.30;;;;;;;;;;5109563;28;20182;-84
2023/03/31 07:23:07;;;;;;;24.27;21.63;;;;;;;;;;5111493;28;20712;-85
2023/03/31 07:25:34;;;;;;;25.77;21.97;;;;;;;;;;5110142;28;20640;-84
2023/03/31 07:28:00;;;;;;;24.23;21.67;;;;;;;;;;5109694;28;20203;-84
2023/03/31 07:30:26;;;;;;;23.40;21.00;;;;;;;;;;5108073;28;20179;-84
2023/03/31 07:32:53;;;;;;;23.57;21.23;;;;;;;;;;5100353;28;20192;-84
2023/03/31 07:35:20;;;;;;;25.43;22.83;;;;;;;;;;5120609;28;20191;-84
2023/03/31 07:37:47;;;;;;;24.33;21.77;;;;;;;;;;5091383;28;20187;-84
2023/03/31 07:40:14;;;;;;;23.37;21.03;;;;;;;;;;5094752;28;20191;-84
2023/03/31 07:42:41;;;;;;;23.77;20.60;;;;;;;;;;5093542;28;20172;-84
2023/03/31 07:45:07;;;;;;;23.27;20.10;;;;;;;;;;5094632;28;20172;-84
2023/03/31 07:47:33;;;;;;;23.53;21.03;;;;;;;;;;5111021;28;20219;-83
2023/03/31 07:49:59;;;;;;;21.70;19.50;;;;;;;;;;5091266;28;20268;-83
2023/03/31 07:52:25;;;;;;;20.13;18.03;;;;;;;;;;5111169;28;20224;-84
2023/03/31 07:54:51;;;;;;;22.37;19.13;;;;;;;;;;5109251;28;20673;-85
2023/03/31 07:57:18;;;;;;;20.97;18.27;;;;;;;;;;5094468;28;20171;-85
2023/03/31 07:59:44;;;;;;;19.03;17.10;;;;;;;;;;5111353;28;20301;-85
2023/03/31 08:02:12;;;;;;;22.30;18.37;;;;;;;;;;5093723;28;20190;-84
2023/03/31 08:04:38;;;;;;;19.37;17.37;;;;;;;;;;5090883;28;20180;-84
2023/03/31 08:07:04;;;;;;;18.47;16.53;;;;;;;;;;5093441;28;20176;-85
2023/03/31 08:09:30;;;;;;;18.10;15.57;;;;;;;;;;5110672;28;20195;-83
2023/03/31 08:11:56;;;;;;;17.40;15.33;;;;;;;;;;5090060;28;20180;-83
2023/03/31 08:14:22;;;;;;;17.60;15.70;;;;;;;;;;5090209;28;20213;-85
2023/03/31 08:16:48;;;;;;;15.97;14.47;;;;;;;;;;5092704;28;20183;-84
2023/03/31 08:19:14;;;;;;;17.33;15.40;;;;;;;;;;5108658;28;20187;-84
2023/03/31 08:21:40;;;;;;;16.63;14.40;;;;;;;;;;5109380;28;20183;-85
2023/03/31 08:24:06;;;;;;;15.70;13.60;;;;;;;;;;5090085;28;20220;-84
2023/03/31 08:26:33;;;;;;;13.97;12.50;;;;;;;;;;5089302;28;20278;-85
2023/03/31 08:29:00;;;;;;;15.70;13.20;;;;;;;;;;5092375;28;20734;-85
2023/03/31 08:31:27;;;;;;;15.97;13.47;;;;;;;;;;5091128;28;20184;-84
2023/03/31 08:33:54;;;;;;;16.73;13.17;;;;;;;;;;5092805;28;20530;-84
2023/03/31 08:36:20;;;;;;;15.50;13.33;;;;;;;;;;5102836;28;20180;-85
2023/03/31 08:38:48;;;;;;;15.33;12.93;;;;;;;;;;5096892;28;20223;-84
2023/03/31 08:41:21;;;;;;;14.90;13.03;;;;;;;;;;5099169;28;20183;-84
2023/03/31 08:43:48;;;;;;;12.07;10.77;;;;;;;;;;5088360;28;20191;-85
2023/03/31 08:46:15;;;;;;;12.90;11.53;;;;;;;;;;5093595;28;20271;-84
2023/03/31 08:48:47;;;;;;;13.50;11.60;;;;;;;;;;5107923;28;20231;-84
2023/03/31 08:51:31;;;;;;;12.90;10.07;;;;;;;;;;5108003;28;20183;-85
2023/03/31 08:54:03;;;;;;;11.33;9.37;;;;;;;;;;5092538;28;20244;-84
2023/03/31 08:56:31;;;;;;;10.50;9.20;;;;;;;;;;5111739;28;20221;-85
2023/03/31 08:59:01;;;;;;;12.60;9.00;;;;;;;;;;5110018;28;20669;-85
2023/03/31 09:01:45;;;;;;;12.77;9.10;;;;;;;;;;5093760;28;20179;-83
2023/03/31 09:04:11;;;;;;;12.43;9.77;;;;;;;;;;5080563;28;20642;-85
2023/03/31 09:07:07;;;;;;;11.23;8.23;;;;;;;;;;5114699;28;20191;-84
2023/03/31 09:09:50;;;;;;;13.83;8.73;;;;;;;;;;5044690;28;20235;-85
2023/03/31 09:12:20;;;;;;;10.23;8.13;;;;;;;;;;5050856;28;20282;-84
2023/03/31 09:14:52;;;;;;;11.07;7.83;;;;;;;;;;5036577;28;20745;-83
2023/03/31 09:17:26;;;;;;;11.97;8.20;;;;;;;;;;5033950;28;20269;-83
2023/03/31 09:19:57;;;;;;;12.60;8.27;;;;;;;;;;5040241;28;20193;-84
2023/03/31 09:22:33;;;;;;;10.47;8.10;;;;;;;;;;5047508;28;20237;-84
2023/03/31 09:25:11;;;;;;;9.63;8.00;;;;;;;;;;5038389;28;20275;-84
2023/03/31 09:27:41;;;;;;;12.57;7.00;;;;;;;;;;5048778;28;20556;-84
2023/03/31 09:30:10;;;;;;;11.13;7.23;;;;;;;;;;5036999;28;20201;-85
2023/03/31 09:32:40;;;;;;;10.73;7.03;;;;;;;;;;5033191;28;20189;-85
2023/03/31 09:35:15;;;;;;;11.10;6.90;;;;;;;;;;5034650;28;20198;-83
2023/03/31 09:37:41;;;;;;;7.43;6.23;;;;;;;;;;5034278;28;20251;-83
2023/03/31 09:40:10;;;;;;;8.23;5.80;;;;;;;;;;5031486;28;20711;-84
2023/03/31 09:42:36;;;;;;;10.03;6.13;;;;;;;;;;5034333;28;20260;-84
2023/03/31 09:45:03;;;;;;;11.63;6.70;;;;;;;;;;5043571;28;20196;-83
2023/03/31 09:47:29;;;;;;;7.07;5.47;;;;;;;;;;5113386;28;20184;-84
2023/03/31 09:49:55;;;;;;;9.43;6.10;;;;;;;;;;5111920;28;20306;-85
2023/03/31 09:52:30;;;;;;;9.50;5.93;;;;;;;;;;5113767;28;20270;-84
2023/03/31 09:54:58;;;;;;;10.33;5.73;;;;;;;;;;5084374;28;20179;-84
2023/03/31 09:57:25;;;;;;;9.50;5.93;;;;;;;;;;5095877;28;20221;-84
2023/03/31 09:59:51;;;;;;;10.93;5.10;;;;;;;;;;5091849;28;20180;-85
2023/03/31 10:02:34;;;;;;;9.03;4.97;;;;;;;;;;5111570;28;20191;-85
2023/03/31 10:05:00;;;;;;;9.20;5.10;;;;;;;;;;5110381;28;20505;-85
2023/03/31 10:07:26;;;;;;;9.60;4.67;;;;;;;;;;5093171;28;20548;-84
2023/03/31 10:09:53;;;;;;;8.27;4.63;;;;;;;;;;5111676;28;20252;-84
2023/03/31 10:12:23;;;;;;;8.03;4.60;;;;;;;;;;5084935;28;20205;-85
2023/03/31 10:14:50;;;;;;;7.37;4.33;;;;;;;;;;5088808;28;20196;-84
2023/03/31 10:17:17;;;;;;;8.87;4.77;;;;;;;;;;5110710;28;20204;-89
2023/03/31 10:20:07;;;;;;;8.53;4.27;;;;;;;;;;5109130;28;20279;-87
2023/03/31 10:22:34;;;;;;;11.17;5.13;;;;;;;;;;5088229;28;20315;-86
2023/03/31 10:25:10;;;;;;;11.33;4.80;;;;;;;;;;5104704;27;20180;-87
2023/03/31 10:27:38;;;;;;;9.10;4.50;;;;;;;;;;5121609;27;20179;-87
2023/03/31 10:30:09;;;;;;;6.67;4.27;;;;;;;;;;5120663;27;20206;-87
2023/03/31 10:32:39;;;;;;;10.53;4.60;;;;;;;;;;5099094;28;20199;-87
2023/03/31 10:35:07;;;;;;;9.20;3.90;;;;;;;;;;5090888;28;20255;-88
2023/03/31 10:37:35;;;;;;;7.77;3.87;;;;;;;;;;5092439;28;20185;-88
2023/03/31 10:40:20;;;;;;;6.67;3.97;;;;;;;;;;5086634;28;20180;-88
2023/03/31 10:42:47;;;;;;;9.30;4.77;;;;;;;;;;5093274;28;20188;-84
2023/03/31 10:45:33;;;;;;;8.37;4.33;;;;;;;;;;5112761;28;20532;-85
2023/03/31 10:48:00;;;;;;;7.57;4.13;;;;;;;;;;5095818;28;20693;-85
2023/03/31 10:50:33;;;;;;;7.23;4.03;;;;;;;;;;5095418;28;20286;-85
2023/03/31 10:53:09;;;;;;;9.20;4.50;;;;;;;;;;5113712;28;20240;-85
2023/03/31 10:55:39;;;;;;;12.63;4.60;;;;;;;;;;5111190;28;20264;-85
2023/03/31 10:58:13;;;;;;;8.73;4.70;;;;;;;;;;5088740;28;20237;-85
2023/03/31 11:00:48;;;;;;;13.57;4.73;;;;;;;;;;5091676;28;20186;-85
2023/03/31 11:03:17;;;;;;;7.87;3.90;;;;;;;;;;5096682;28;20179;-85
2023/03/31 11:05:52;;;;;;;5.13;3.47;;;;;;;;;;5095163;28;20204;-85
2023/03/31 11:08:21;;;;;;;8.43;4.87;;;;;;;;;;5091718;28;20252;-85
2023/03/31 11:10:53;;;;;;;5.30;3.53;;;;;;;;;;5096541;28;20271;-85
2023/03/31 11:13:28;;;;;;;10.27;4.57;;;;;;;;;;5094591;28;20535;-85
2023/03/31 11:16:10;;;;;;;9.13;4.40;;;;;;;;;;5110828;28;20198;-85
2023/03/31 11:18:36;;;;;;;7.83;4.53;;;;;;;;;;5109344;28;20168;-85
2023/03/31 11:21:25;;;;;;;10.57;4.57;;;;;;;;;;5111084;28;20309;-85
2023/03/31 11:24:31;;;;;;;7.97;4.97;;;;;;;;;;5091025;28;20231;-85
2023/03/31 11:27:00;;;;;;;6.77;4.10;;;;;;;;;;5029192;28;20278;-84
2023/03/31 11:29:30;;;;;;;6.00;4.33;;;;;;;;;;5013515;28;20214;-83
2023/03/31 11:31:56;;;;;;;5.93;4.37;;;;;;;;;;5007168;28;20214;-85
2023/03/31 11:34:37;;;;;;;8.70;5.03;;;;;;;;;;5026088;28;20186;-84
2023/03/31 11:37:12;;;;;;;8.73;4.87;;;;;;;;;;5035457;28;20189;-85
2023/03/31 11:39:38;;;;;;;8.97;5.10;;;;;;;;;;5028525;28;20245;-85
2023/03/31 11:42:09;;;;;;;9.60;4.70;;;;;;;;;;5012694;28;20258;-84
2023/03/31 11:44:39;;;;;;;6.23;4.50;;;;;;;;;;5012814;28;20237;-85
2023/03/31 11:47:17;;;;;;;9.20;4.30;;;;;;;;;;5027907;28;20194;-86
2023/03/31 11:49:47;;;;;;;8.20;4.83;;;;;;;;;;5023669;28;20279;-84
2023/03/31 11:52:32;;;;;;;11.90;5.13;;;;;;;;;;5026324;28;20215;-85
2023/03/31 11:55:17;;;;;;;11.37;5.10;;;;;;;;;;5019186;28;20193;-84
2023/03/31 11:57:44;;;;;;;10.37;5.33;;;;;;;;;;5043441;28;20274;-86
2023/03/31 12:00:21;;;;;;;9.03;5.00;;;;;;;;;;5092160;28;20652;-83
2023/03/31 12:02:48;;;;;;;9.70;4.80;;;;;;;;;;5091662;28;20215;-84
2023/03/31 12:05:15;;;;;;;6.67;4.23;;;;;;;;;;5090305;28;20807;-84
2023/03/31 12:07:45;;;;;;;9.57;4.80;;;;;;;;;;5092969;28;20638;-84
2023/03/31 12:10:14;;;;;;;8.10;4.37;;;;;;;;;;5090983;28;20180;-83
2023/03/31 12:12:43;;;;;;;8.27;4.83;;;;;;;;;;5107866;28;20255;-84
2023/03/31 12:15:16;;;;;;;7.27;4.60;;;;;;;;;;5087347;28;20199;-84
2023/03/31 12:17:47;;;;;;;9.27;4.43;;;;;;;;;;5102172;28;20189;-84
2023/03/31 12:20:25;;;;;;;7.67;4.33;;;;;;;;;;5106170;28;20240;-83
2023/03/31 12:22:51;;;;;;;10.30;4.63;;;;;;;;;;5108714;28;20294;-84
2023/03/31 12:25:25;;;;;;;9.17;4.73;;;;;;;;;;5090407;28;20192;-84
2023/03/31 12:27:53;;;;;;;10.33;4.67;;;;;;;;;;5091953;28;20171;-85
2023/03/31 12:30:37;;;;;;;10.17;4.70;;;;;;;;;;5093285;28;20618;-83
2023/03/31 12:33:12;;;;;;;6.00;4.33;;;;;;;;;;5083344;28;20271;-83
2023/03/31 12:35:51;;;;;;;9.27;4.20;;;;;;;;;;5083934;28;20228;-83
2023/03/31 12:38:36;;;;;;;6.50;4.10;;;;;;;;;;5087535;28;20266;-83
2023/03/31 12:41:06;;;;;;;10.10;5.03;;;;;;;;;;5090062;28;20175;-83
2023/03/31 12:43:44;;;;;;;8.23;4.17;;;;;;;;;;5091455;28;20203;-83
2023/03/31 12:46:29;;;;;;;7.53;4.07;;;;;;;;;;5075336;28;20184;-83
2023/03/31 12:49:24;;;;;;;8.20;3.60;;;;;;;;;;5090696;28;20622;-83
2023/03/31 12:51:50;;;;;;;6.27;3.53;;;;;;;;;;5028497;28;20228;-83
2023/03/31 12:54:22;;;;;;;6.53;3.67;;;;;;;;;;5028835;28;20190;-83
2023/03/31 12:57:00;;;;;;;7.47;3.87;;;;;;;;;;5011361;28;20193;-83
2023/03/31 12:59:33;;;;;;;9.47;3.33;;;;;;;;;;5023348;28;20741;-83
2023/03/31 13:02:28;;;;;;;7.97;4.00;;;;;;;;;;5013323;28;20679;-83
2023/03/31 13:04:54;;;;;;;5.97;3.57;;;;;;;;;;5007234;28;20199;-84
2023/03/31 13:07:20;;;;;;;7.40;4.07;;;;;;;;;;5024683;28;20199;-84
2023/03/31 13:09:47;;;;;;;8.80;3.90;;;;;;;;;;5021980;28;20742;-85
2023/03/31 13:12:18;;;;;;;9.63;3.80;;;;;;;;;;5008131;28;20175;-85
2023/03/31 13:14:45;;;;;;;7.37;3.67;;;;;;;;;;5027196;28;20191;-84
2023/03/31 13:17:21;;;;;;;6.67;3.67;;;;;;;;;;5010616;28;20266;-84
2023/03/31 13:19:47;;;;;;;6.20;3.33;;;;;;;;;;5013414;28;20186;-84
2023/03/31 13:22:33;;;;;;;6.73;3.30;;;;;;;;;;5026986;28;20190;-84
2023/03/31 13:25:17;;;;;;;5.27;2.67;;;;;;;;;;5011880;28;20763;-84
2023/03/31 13:27:52;;;;;;;9.07;3.23;;;;;;;;;;5029019;28;20215;-85
2023/03/31 13:30:36;;;;;;;7.47;3.43;;;;;;;;;;5068428;28;20176;-84
2023/03/31 13:33:04;;;;;;;6.33;2.97;;;;;;;;;;5069323;28;20194;-85
2023/03/31 13:35:32;;;;;;;6.70;3.03;;;;;;;;;;5078723;28;20593;-84
2023/03/31 13:38:07;;;;;;;5.67;3.40;;;;;;;;;;5064484;28;20190;-83
2023/03/31 13:40:55;;;;;;;7.73;3.47;;;;;;;;;;5080982;28;20184;-84
2023/03/31 13:43:21;;;;;;;8.13;3.70;;;;;;;;;;5063690;28;20239;-83
2023/03/31 13:45:57;;;;;;;8.33;3.90;;;;;;;;;;5061964;28;20169;-83
2023/03/31 13:48:26;;;;;;;6.70;3.03;;;;;;;;;;5065893;28;20196;-83
2023/03/31 13:50:52;;;;;;;6.23;3.43;;;;;;;;;;5065020;28;20570;-83
2023/03/31 13:53:21;;;;;;;4.80;3.20;;;;;;;;;;5069419;28;20190;-82
2023/03/31 13:56:06;;;;;;;8.73;3.43;;;;;;;;;;5064776;28;20896;-84
2023/03/31 13:58:32;;;;;;;10.57;3.87;;;;;;;;;;5064012;28;20182;-84
2023/03/31 14:00:58;;;;;;;5.90;3.27;;;;;;;;;;5074974;28;20174;-82
2023/03/31 14:03:43;;;;;;;8.37;3.70;;;;;;;;;;5080656;28;20168;-82
2023/03/31 14:06:27;;;;;;;8.43;3.27;;;;;;;;;;5064692;28;20184;-81
2023/03/31 14:09:20;;;;;;;5.90;3.77;;;;;;;;;;5075161;28;20582;-81
2023/03/31 14:11:46;;;;;;;6.00;3.37;;;;;;;;;;5059250;28;20212;-82
2023/03/31 14:14:14;;;;;;;9.47;3.70;;;;;;;;;;5065735;28;20185;-83
2023/03/31 14:16:43;;;;;;;6.43;3.10;;;;;;;;;;5055422;28;20189;-81
2023/03/31 14:19:26;;;;;;;6.90;3.43;;;;;;;;;;5059891;28;20185;-82
2023/03/31 14:21:52;;;;;;;7.87;3.37;;;;;;;;;;5068022;28;20177;-81
2023/03/31 14:24:37;;;;;;;8.13;3.57;;;;;;;;;;5078797;28;20581;-81
2023/03/31 14:27:02;;;;;;;5.10;2.93;;;;;;;;;;5084579;28;20181;-81
2023/03/31 14:29:50;;;;;;;7.53;3.10;;;;;;;;;;5083241;28;20201;-81
2023/03/31 14:32:27;;;;;;;8.23;3.60;;;;;;;;;;5089339;28;20223;-81
2023/03/31 14:35:05;;;;;;;8.17;3.47;;;;;;;;;;5089377;28;20183;-82
2023/03/31 14:37:31;;;;;;;7.13;3.60;;;;;;;;;;5088091;28;20647;-80
2023/03/31 14:39:58;;;;;;;8.33;3.93;;;;;;;;;;5074729;28;20315;-80
2023/03/31 14:42:26;;;;;;;7.10;3.43;;;;;;;;;;5088979;28;20357;-81
2023/03/31 14:44:56;;;;;;;7.87;3.67;;;;;;;;;;5086086;28;20217;-81
2023/03/31 14:47:23;;;;;;;6.90;3.77;;;;;;;;;;5087090;28;20180;-82
2023/03/31 14:50:05;;;;;;;10.77;3.93;;;;;;;;;;5101545;28;20208;-81